Time;durP1;ratioP1;P1;durP2;ratioP2;P2;SDS_P1;SDS_P2;PMS_P1;PMS_P2;Temp;Humidity;BMP_temperature;BMP_pressure;BME280_temperature;BME280_humidity;BME280_pressure;Samples;Min_cycle;Max_cycle;Signal;HPM_P1;HPM_P2
2021/04/21 00:01:05;;;;;;;11.83;8.13;;;8.10;69.90;;;;;;5111320;28;20317;-73
2021/04/21 00:03:31;;;;;;;12.40;8.23;;;8.10;70.00;;;;;;5111214;28;20335;-72
2021/04/21 00:05:59;;;;;;;10.43;8.20;;;8.10;70.10;;;;;;5111217;28;20658;-73
2021/04/21 00:08:26;;;;;;;15.57;8.30;;;8.10;70.20;;;;;;5111801;28;20297;-72
2021/04/21 00:10:53;;;;;;;10.20;7.90;;;8.10;70.40;;;;;;5110932;28;20312;-72
2021/04/21 00:13:21;;;;;;;11.20;8.33;;;8.00;70.40;;;;;;5111676;28;20301;-73
2021/04/21 00:15:48;;;;;;;11.90;8.43;;;8.00;70.50;;;;;;5114499;28;20301;-73
2021/04/21 00:18:15;;;;;;;12.30;8.13;;;8.00;70.70;;;;;;5114788;28;20297;-73
2021/04/21 00:20:42;;;;;;;10.80;7.87;;;8.00;70.90;;;;;;5115159;28;20320;-73
2021/04/21 00:23:11;;;;;;;11.47;8.77;;;7.90;70.80;;;;;;5115503;28;20289;-72
2021/04/21 00:25:39;;;;;;;12.93;8.20;;;7.90;71.00;;;;;;5114577;28;20614;-72
2021/04/21 00:28:07;;;;;;;11.50;7.70;;;7.90;71.10;;;;;;5115094;28;20301;-72
2021/04/21 00:30:35;;;;;;;13.73;8.57;;;7.80;71.10;;;;;;5115385;28;20326;-73
2021/04/21 00:33:01;;;;;;;9.87;7.73;;;7.80;71.30;;;;;;5114299;28;20755;-73
2021/04/21 00:35:41;;;;;;;8.90;7.57;;;7.80;71.40;;;;;;5115426;28;20301;-72
2021/04/21 00:38:09;;;;;;;10.80;8.53;;;7.80;71.50;;;;;;5114387;28;20285;-72
2021/04/21 00:40:44;;;;;;;9.33;7.60;;;7.80;71.60;;;;;;5115302;28;20309;-72
2021/04/21 00:43:48;;;;;;;13.90;9.40;;;7.70;71.70;;;;;;5114865;28;20331;-72
2021/04/21 00:46:28;;;;;;;10.07;7.93;;;7.70;72.10;;;;;;5090424;28;20293;-72
2021/04/21 00:49:03;;;;;;;11.40;7.53;;;7.60;71.90;;;;;;5115060;28;20289;-72
2021/04/21 00:51:38;;;;;;;11.47;8.40;;;7.60;71.90;;;;;;5115108;28;20302;-73
2021/04/21 00:54:12;;;;;;;11.40;8.43;;;7.60;72.10;;;;;;5113787;28;20297;-73
2021/04/21 00:56:54;;;;;;;11.43;8.80;;;7.50;72.30;;;;;;5114930;28;20705;-72
2021/04/21 00:59:34;;;;;;;12.77;9.13;;;7.40;72.60;;;;;;5114208;28;20297;-72
2021/04/21 01:02:02;;;;;;;12.07;9.50;;;7.40;72.90;;;;;;5114344;28;20055;-73
2021/04/21 01:04:28;;;;;;;10.40;9.30;;;7.30;72.90;;;;;;5114685;28;20380;-72
2021/04/21 01:06:55;;;;;;;12.00;8.77;;;7.30;73.10;;;;;;5113897;28;20350;-72
2021/04/21 01:09:24;;;;;;;11.63;9.40;;;7.30;73.30;;;;;;5114620;28;20293;-72
2021/04/21 01:11:53;;;;;;;13.90;8.83;;;7.20;73.40;;;;;;5114336;28;20337;-72
2021/04/21 01:14:24;;;;;;;14.30;8.60;;;7.20;73.50;;;;;;5113704;28;20625;-72
2021/04/21 01:16:54;;;;;;;12.40;8.37;;;7.20;73.60;;;;;;5114305;28;20310;-72
2021/04/21 01:19:23;;;;;;;12.43;8.27;;;7.20;73.70;;;;;;5114471;28;20879;-73
2021/04/21 01:21:53;;;;;;;10.00;8.37;;;7.20;73.80;;;;;;5113449;28;20835;-73
2021/04/21 01:24:44;;;;;;;10.17;7.53;;;7.10;73.90;;;;;;5114086;28;20631;-73
2021/04/21 01:27:20;;;;;;;11.43;8.23;;;7.10;74.10;;;;;;5112293;28;20293;-73
2021/04/21 01:29:49;;;;;;;12.97;8.87;;;7.10;74.10;;;;;;5113818;28;20305;-72
2021/04/21 01:32:23;;;;;;;11.23;8.27;;;7.00;74.20;;;;;;5114385;28;20300;-72
2021/04/21 01:34:50;;;;;;;9.20;7.67;;;6.90;74.20;;;;;;5113117;28;20788;-72
2021/04/21 01:37:24;;;;;;;12.47;9.17;;;6.90;74.30;;;;;;5114036;28;20320;-72
2021/04/21 01:40:12;;;;;;;12.97;9.33;;;6.90;74.50;;;;;;5113794;28;20324;-72
2021/04/21 01:42:44;;;;;;;12.00;9.40;;;6.80;74.80;;;;;;5113623;28;20368;-72
2021/04/21 01:45:18;;;;;;;12.83;8.67;;;6.80;74.80;;;;;;5114231;28;20300;-72
2021/04/21 01:47:49;;;;;;;12.77;10.17;;;6.80;74.80;;;;;;5113802;28;20293;-73
2021/04/21 01:50:17;;;;;;;11.43;8.63;;;6.80;74.90;;;;;;5112938;28;20312;-72
2021/04/21 01:52:54;;;;;;;13.07;9.03;;;6.80;75.10;;;;;;5113768;28;20297;-72
2021/04/21 01:55:20;;;;;;;12.90;9.03;;;6.80;75.30;;;;;;5113212;28;20297;-72
2021/04/21 01:58:20;;;;;;;13.27;8.97;;;6.80;75.30;;;;;;5113451;28;20297;-72
2021/04/21 02:01:06;;;;;;;12.30;9.13;;;6.70;75.70;;;;;;5113273;28;20485;-73
2021/04/21 02:03:36;;;;;;;13.37;10.53;;;6.70;75.60;;;;;;5113108;28;20309;-72
2021/04/21 02:06:23;;;;;;;14.17;9.43;;;6.70;75.70;;;;;;5113438;28;20642;-73
2021/04/21 02:09:10;;;;;;;15.37;10.00;;;6.70;76.00;;;;;;5113373;28;20354;-72
2021/04/21 02:11:38;;;;;;;12.80;10.80;;;6.70;76.00;;;;;;5113737;28;20301;-72
2021/04/21 02:14:15;;;;;;;13.83;9.83;;;6.70;76.10;;;;;;5113097;28;20343;-72
2021/04/21 02:16:46;;;;;;;13.27;11.43;;;6.70;76.20;;;;;;5112457;28;20301;-72
2021/04/21 02:19:31;;;;;;;18.43;13.90;;;6.70;76.30;;;;;;5113127;28;20320;-72
2021/04/21 02:22:38;;;;;;;20.67;13.30;;;6.70;76.40;;;;;;5080976;28;20372;-72
2021/04/21 02:25:24;;;;;;;12.87;11.37;;;6.70;76.90;;;;;;5049214;28;20308;-73
2021/04/21 02:28:19;;;;;;;16.20;12.33;;;6.70;76.40;;;;;;5110897;28;20297;-73
2021/04/21 02:31:05;;;;;;;13.80;11.37;;;6.70;76.50;;;;;;5112049;28;20384;-72
2021/04/21 02:34:03;;;;;;;12.87;10.87;;;6.70;76.50;;;;;;5113249;28;20297;-72
2021/04/21 02:36:44;;;;;;;13.67;11.20;;;6.60;76.80;;;;;;5113025;28;20754;-72
2021/04/21 02:39:18;;;;;;;14.48;12.40;;;6.60;76.90;;;;;;5111840;28;20770;-72
2021/04/21 02:41:59;;;;;;;14.17;12.70;;;6.60;76.90;;;;;;5112844;28;20063;-72
2021/04/21 02:44:32;;;;;;;13.17;11.87;;;6.50;77.10;;;;;;5112125;28;20438;-72
2021/04/21 02:47:31;;;;;;;15.47;13.37;;;6.50;77.30;;;;;;5112534;28;20282;-73
2021/04/21 02:50:09;;;;;;;17.77;12.90;;;6.50;77.40;;;;;;5077838;28;20744;-72
2021/04/21 02:52:50;;;;;;;18.37;13.63;;;6.50;77.70;;;;;;5112115;28;20297;-72
2021/04/21 02:56:01;;;;;;;14.60;13.05;;;6.50;77.90;;;;;;5112539;28;20305;-72
2021/04/21 02:58:51;;;;;;;16.33;13.57;;;6.50;78.40;;;;;;5111993;28;20052;-72
2021/04/21 03:01:30;;;;;;;15.20;13.13;;;6.50;78.40;;;;;;5112124;28;20309;-72
2021/04/21 03:04:16;;;;;;;17.63;15.50;;;6.50;78.50;;;;;;5111979;28;20296;-72
2021/04/21 03:06:47;;;;;;;18.33;14.67;;;6.50;78.60;;;;;;5111363;28;20782;-72
2021/04/21 03:09:18;;;;;;;18.52;15.00;;;6.50;78.70;;;;;;5112124;28;20297;-72
2021/04/21 03:11:45;;;;;;;17.92;15.02;;;6.50;79.00;;;;;;5112120;28;20132;-72
2021/04/21 03:14:19;;;;;;;16.57;14.83;;;6.40;79.10;;;;;;5111296;28;20565;-73
2021/04/21 03:16:50;;;;;;;15.10;13.53;;;6.40;79.50;;;;;;5112151;28;20325;-72
2021/04/21 03:19:23;;;;;;;16.70;14.85;;;6.40;79.60;;;;;;5112030;28;20293;-73
2021/04/21 03:21:57;;;;;;;17.33;14.90;;;6.40;79.70;;;;;;5111253;28;20054;-72
2021/04/21 03:24:26;;;;;;;16.90;15.17;;;6.40;79.80;;;;;;5112467;28;20285;-72
2021/04/21 03:26:56;;;;;;;18.30;15.27;;;6.40;80.00;;;;;;5111308;28;20331;-72
2021/04/21 03:29:30;;;;;;;18.10;16.17;;;6.40;80.20;;;;;;5112425;28;20297;-72
2021/04/21 03:31:56;;;;;;;20.27;15.90;;;6.30;80.30;;;;;;5111418;28;20823;-72
2021/04/21 03:34:25;;;;;;;17.73;15.93;;;6.30;80.40;;;;;;5111362;28;20297;-72
2021/04/21 03:36:53;;;;;;;18.57;16.47;;;6.30;80.60;;;;;;5111562;28;20294;-72
2021/04/21 03:39:19;;;;;;;19.17;17.27;;;6.30;80.50;;;;;;5111685;28;20389;-72
2021/04/21 03:41:45;;;;;;;19.10;17.20;;;6.30;80.70;;;;;;5111084;28;20325;-72
2021/04/21 03:44:11;;;;;;;19.60;17.50;;;6.40;80.80;;;;;;5111769;28;20340;-72
2021/04/21 03:46:37;;;;;;;19.60;17.70;;;6.40;80.70;;;;;;5112019;28;20055;-73
2021/04/21 03:49:07;;;;;;;18.43;16.57;;;6.40;80.60;;;;;;5110749;28;20827;-73
2021/04/21 03:51:34;;;;;;;19.93;16.67;;;6.50;80.60;;;;;;5116418;28;20311;-73
2021/04/21 03:54:02;;;;;;;21.07;17.43;;;6.50;80.40;;;;;;5115821;28;20321;-73
2021/04/21 03:56:29;;;;;;;18.00;15.33;;;6.60;80.30;;;;;;5115374;28;20350;-71
2021/04/21 03:58:56;;;;;;;17.00;14.60;;;6.60;80.10;;;;;;5115414;28;20420;-72
2021/04/21 04:01:24;;;;;;;18.90;16.90;;;6.60;80.00;;;;;;5115784;28;20313;-72
2021/04/21 04:03:52;;;;;;;18.13;16.27;;;6.60;80.10;;;;;;5114857;28;20831;-71
2021/04/21 04:06:25;;;;;;;17.03;15.33;;;6.60;80.20;;;;;;5115772;28;20338;-72
2021/04/21 04:09:06;;;;;;;16.77;15.03;;;6.60;80.20;;;;;;5115037;28;20321;-72
2021/04/21 04:11:46;;;;;;;17.13;15.27;;;6.50;80.10;;;;;;5115913;28;20770;-72
2021/04/21 04:14:24;;;;;;;19.90;16.73;;;6.60;80.30;;;;;;5115918;28;20293;-71
2021/04/21 04:16:53;;;;;;;19.63;17.53;;;6.60;80.40;;;;;;5114831;28;20295;-72
2021/04/21 04:19:19;;;;;;;19.63;17.47;;;6.60;80.60;;;;;;5115228;28;20320;-72
2021/04/21 04:22:05;;;;;;;23.97;18.17;;;6.60;80.50;;;;;;5115438;28;20358;-72
2021/04/21 04:24:51;;;;;;;19.50;16.90;;;6.60;80.50;;;;;;5114749;28;20774;-72
2021/04/21 04:27:19;;;;;;;19.03;16.13;;;6.60;80.70;;;;;;5115416;28;20303;-72
2021/04/21 04:29:46;;;;;;;18.80;16.80;;;6.60;80.80;;;;;;5114911;28;20316;-72
2021/04/21 04:32:32;;;;;;;21.83;17.00;;;6.50;80.80;;;;;;5114869;28;20354;-72
2021/04/21 04:34:59;;;;;;;20.93;18.40;;;6.60;81.20;;;;;;5114755;28;20338;-72
2021/04/21 04:37:27;;;;;;;19.70;17.53;;;6.60;81.20;;;;;;5114747;28;20301;-72
2021/04/21 04:39:54;;;;;;;19.60;16.67;;;6.60;81.30;;;;;;5115070;28;20316;-72
2021/04/21 04:42:21;;;;;;;19.70;17.10;;;6.60;81.50;;;;;;5115307;28;20664;-72
2021/04/21 04:44:51;;;;;;;21.63;19.37;;;6.60;81.50;;;;;;5114168;28;20350;-72
2021/04/21 04:47:24;;;;;;;20.73;18.63;;;6.60;81.60;;;;;;5114825;28;20640;-72
2021/04/21 04:50:06;;;;;;;20.67;17.53;;;6.60;81.80;;;;;;5114963;28;20297;-72
2021/04/21 04:52:34;;;;;;;18.90;16.88;;;6.70;82.00;;;;;;5114609;28;20738;-71
2021/04/21 04:55:01;;;;;;;20.13;18.03;;;6.70;82.10;;;;;;5114421;28;20044;-71
2021/04/21 04:57:29;;;;;;;20.70;18.50;;;6.70;82.20;;;;;;5114928;28;20370;-72
2021/04/21 04:59:59;;;;;;;23.77;17.93;;;6.70;82.40;;;;;;5113349;28;20301;-72
2021/04/21 05:02:26;;;;;;;20.73;17.63;;;6.80;82.60;;;;;;5115109;28;20301;-73
2021/04/21 05:05:00;;;;;;;21.37;18.10;;;6.80;82.60;;;;;;5114616;28;20696;-73
2021/04/21 05:08:03;;;;;;;20.60;18.37;;;6.80;82.60;;;;;;5114847;28;20358;-73
2021/04/21 05:10:51;;;;;;;21.13;18.87;;;6.80;82.70;;;;;;5114650;28;20320;-73
2021/04/21 05:13:21;;;;;;;20.90;17.60;;;6.90;82.80;;;;;;5113666;28;20354;-72
2021/04/21 05:15:52;;;;;;;21.40;19.27;;;6.90;82.70;;;;;;5114432;28;20293;-72
2021/04/21 05:18:55;;;;;;;21.58;19.45;;;6.90;82.90;;;;;;5114224;28;20297;-73
2021/04/21 05:22:05;;;;;;;21.53;18.90;;;6.90;83.10;;;;;;5113857;28;20059;-72
2021/04/21 05:24:58;;;;;;;22.90;20.33;;;7.00;83.20;;;;;;5051322;28;20482;-72
2021/04/21 05:27:58;;;;;;;24.23;21.03;;;6.90;83.80;;;;;;5113488;28;20773;-72
2021/04/21 05:31:10;;;;;;;24.90;20.70;;;6.90;83.90;;;;;;5114106;28;20305;-72
2021/04/21 05:34:16;;;;;;;21.77;19.52;;;7.00;84.40;;;;;;5113557;28;20305;-73
2021/04/21 05:37:24;;;;;;;24.37;20.27;;;7.20;84.40;;;;;;5113759;28;20063;-72
2021/04/21 05:40:37;;;;;;;21.73;19.37;;;7.30;84.20;;;;;;5105162;28;20805;-72
2021/04/21 05:43:41;;;;;;;21.30;19.07;;;7.60;84.60;;;;;;5107784;28;20325;-72
2021/04/21 05:46:38;;;;;;;22.17;18.30;;;8.00;83.90;;;;;;5113760;28;20300;-72
2021/04/21 05:49:41;;;;;;;20.03;17.93;;;8.30;83.10;;;;;;5112679;28;20380;-72
2021/04/21 05:52:17;;;;;;;23.23;18.47;;;8.60;82.80;;;;;;5113300;28;20301;-73
2021/04/21 05:55:12;;;;;;;19.80;17.67;;;9.00;82.70;;;;;;5113292;28;20301;-72
2021/04/21 05:58:08;;;;;;;18.87;16.87;;;9.30;81.70;;;;;;5084639;28;20286;-73
2021/04/21 06:01:11;;;;;;;18.97;16.93;;;9.40;81.00;;;;;;5113616;28;20344;-73
2021/04/21 06:03:39;;;;;;;21.30;17.60;;;9.30;80.80;;;;;;5113319;28;20384;-72
2021/04/21 06:06:05;;;;;;;21.60;18.03;;;9.30;80.90;;;;;;5112767;28;20750;-72
2021/04/21 06:08:32;;;;;;;21.30;18.87;;;9.40;80.90;;;;;;5112692;28;20299;-73
2021/04/21 06:10:59;;;;;;;20.67;17.97;;;9.70;81.10;;;;;;5112752;28;20073;-73
2021/04/21 06:13:30;;;;;;;20.70;18.10;;;10.00;80.10;;;;;;5113080;28;20296;-73
2021/04/21 06:15:57;;;;;;;20.93;18.77;;;10.00;79.50;;;;;;5112129;28;20298;-72
2021/04/21 06:18:23;;;;;;;23.17;20.40;;;9.90;79.70;;;;;;5113312;28;20293;-72
2021/04/21 06:20:49;;;;;;;22.53;20.33;;;9.80;80.00;;;;;;5112651;28;20619;-73
2021/04/21 06:23:23;;;;;;;24.20;21.50;;;9.70;80.40;;;;;;5111990;28;20346;-72
2021/04/21 06:26:00;;;;;;;24.95;20.70;;;9.70;80.60;;;;;;5112938;28;20380;-72
2021/04/21 06:28:27;;;;;;;25.40;21.03;;;9.70;80.70;;;;;;5113469;28;20048;-73
2021/04/21 06:31:06;;;;;;;23.33;20.90;;;9.70;80.50;;;;;;5111763;28;20301;-73
2021/04/21 06:33:39;;;;;;;25.90;23.17;;;9.70;80.80;;;;;;5112892;28;20312;-72
2021/04/21 06:36:07;;;;;;;30.67;24.13;;;9.70;81.00;;;;;;5112196;28;20362;-73
2021/04/21 06:38:39;;;;;;;28.50;24.33;;;9.70;81.20;;;;;;5112325;28;20293;-72
2021/04/21 06:41:05;;;;;;;;;;;9.70;81.70;;;;;;5112737;28;20335;-72
2021/04/21 06:43:33;;;;;;;31.17;26.43;;;9.70;82.80;;;;;;5111867;28;19920;-73
2021/04/21 06:46:00;;;;;;;35.23;28.80;;;9.80;82.20;;;;;;5111890;28;20293;-72
2021/04/21 06:48:32;;;;;;;38.17;29.73;;;9.80;82.40;;;;;;5112520;28;20297;-73
2021/04/21 06:51:15;;;;;;;42.55;32.30;;;9.80;82.70;;;;;;5111336;28;20293;-72
2021/04/21 06:53:43;;;;;;;48.90;33.60;;;9.80;84.70;;;;;;5112578;28;20047;-72
2021/04/21 06:56:09;;;;;;;49.47;34.57;;;9.80;84.20;;;;;;5111952;28;20770;-72
2021/04/21 06:58:38;;;;;;;46.50;36.13;;;9.70;84.80;;;;;;5111422;28;20297;-71
2021/04/21 07:01:25;;;;;;;48.53;35.17;;;9.80;85.20;;;;;;5111906;28;20337;-72
2021/04/21 07:03:51;;;;;;;54.85;36.03;;;9.70;85.70;;;;;;5111835;28;20338;-71
2021/04/21 07:06:17;;;;;;;51.97;34.17;;;9.70;85.70;;;;;;5110950;28;20047;-71
2021/04/21 07:08:44;;;;;;;59.97;39.30;;;9.70;85.80;;;;;;5111674;28;20301;-73
2021/04/21 07:11:10;;;;;;;59.60;38.23;;;9.80;86.60;;;;;;5111962;28;20289;-72
2021/04/21 07:13:37;;;;;;;56.03;39.17;;;9.80;86.70;;;;;;5111337;28;20372;-72
2021/04/21 07:16:07;;;;;;;57.43;38.13;;;9.80;86.60;;;;;;5111715;28;20301;-72
2021/04/21 07:18:37;;;;;;;59.83;38.23;;;9.80;86.80;;;;;;5112006;28;20468;-73
2021/04/21 07:21:06;;;;;;;57.67;38.23;;;9.80;87.10;;;;;;5111440;28;20313;-72
2021/04/21 07:23:33;;;;;;;55.20;37.70;;;9.80;87.90;;;;;;5111589;28;20312;-72
2021/04/21 07:25:59;;;;;;;57.30;35.30;;;9.80;88.30;;;;;;5110285;28;20815;-73
2021/04/21 07:28:29;;;;;;;64.33;39.17;;;9.80;88.10;;;;;;5112178;28;20308;-73
2021/04/21 07:30:56;;;;;;;53.37;30.90;;;9.70;88.20;;;;;;5111181;28;20350;-73
2021/04/21 07:33:40;;;;;;;51.40;31.43;;;9.60;88.90;;;;;;5111283;28;20324;-72
2021/04/21 07:36:10;;;;;;;54.27;31.60;;;9.60;89.90;;;;;;5111602;28;20372;-72
2021/04/21 07:38:39;;;;;;;53.03;32.30;;;9.50;88.20;;;;;;5111962;28;20768;-72
2021/04/21 07:41:05;;;;;;;59.23;33.03;;;9.50;88.20;;;;;;5110644;28;20055;-72
2021/04/21 07:43:38;;;;;;;56.97;33.77;;;9.50;88.00;;;;;;5111994;28;20650;-71
2021/04/21 07:46:04;;;;;;;52.10;31.70;;;9.40;88.40;;;;;;5111215;28;20047;-71
2021/04/21 07:48:32;;;;;;;51.47;30.87;;;9.30;88.40;;;;;;5110801;28;20670;-71
2021/04/21 07:51:17;;;;;;;48.77;30.73;;;9.20;88.80;;;;;;5111040;28;20077;-71
2021/04/21 07:53:51;;;;;;;36.00;24.57;;;9.10;89.10;;;;;;5111471;28;20358;-71
2021/04/21 07:56:20;;;;;;;35.03;25.03;;;9.00;88.70;;;;;;5111379;28;20377;-72
2021/04/21 07:58:46;;;;;;;37.50;24.87;;;9.10;88.50;;;;;;5111081;28;20298;-71
2021/04/21 08:01:12;;;;;;;29.97;22.17;;;9.10;88.50;;;;;;5110351;28;20314;-71
2021/04/21 08:04:22;;;;;;;29.07;19.73;;;9.10;87.80;;;;;;5110172;28;20288;-71
2021/04/21 08:06:51;;;;;;;25.20;20.27;;;9.20;87.10;;;;;;5111108;28;20301;-71
2021/04/21 08:09:18;;;;;;;25.87;20.03;;;9.30;86.60;;;;;;5110590;28;20695;-71
2021/04/21 08:11:45;;;;;;;28.93;20.57;;;9.30;86.30;;;;;;5111155;28;20305;-71
2021/04/21 08:14:12;;;;;;;27.43;20.60;;;9.30;86.10;;;;;;5111324;28;20304;-72
2021/04/21 08:16:38;;;;;;;25.17;19.30;;;9.40;85.90;;;;;;5110934;28;20302;-71
2021/04/21 08:19:17;;;;;;;24.93;20.00;;;9.50;85.90;;;;;;5110936;28;20712;-72
2021/04/21 08:21:48;;;;;;;27.33;18.00;;;9.50;85.90;;;;;;5111002;28;20079;-72
2021/04/21 08:24:16;;;;;;;24.97;18.10;;;9.50;85.60;;;;;;5110296;28;20294;-72
2021/04/21 08:26:47;;;;;;;23.50;17.03;;;9.60;85.50;;;;;;5111497;28;20312;-72
2021/04/21 08:29:14;;;;;;;21.77;15.87;;;9.60;85.40;;;;;;5110542;28;20296;-71
2021/04/21 08:31:50;;;;;;;18.90;14.77;;;9.60;85.30;;;;;;5111054;28;20794;-71
2021/04/21 08:34:17;;;;;;;20.83;12.50;;;9.70;85.00;;;;;;5111093;28;20673;-72
2021/04/21 08:36:42;;;;;;;15.17;11.67;;;9.80;84.80;;;;;;5112800;28;20301;-72
2021/04/21 08:39:09;;;;;;;16.37;11.80;;;9.90;84.40;;;;;;5114798;28;20301;-72
2021/04/21 08:41:40;;;;;;;12.63;11.13;;;10.00;83.30;;;;;;5115021;28;20370;-72
2021/04/21 08:44:07;;;;;;;17.05;10.70;;;9.90;83.10;;;;;;5113954;28;20619;-72
2021/04/21 08:46:33;;;;;;;13.73;10.10;;;9.90;82.90;;;;;;5115131;28;20109;-72
2021/04/21 08:49:00;;;;;;;11.57;7.40;;;9.80;82.70;;;;;;5114165;28;20306;-72
2021/04/21 08:51:27;;;;;;;12.27;7.97;;;9.80;82.60;;;;;;5113910;28;20661;-72
2021/04/21 08:54:04;;;;;;;12.37;6.63;;;9.70;82.20;;;;;;5114374;28;20689;-72
2021/04/21 08:56:32;;;;;;;14.07;6.33;;;9.70;82.20;;;;;;5114269;28;20826;-72
2021/04/21 08:58:58;;;;;;;10.57;5.60;;;9.70;82.20;;;;;;5112194;28;20289;-72
2021/04/21 09:01:24;;;;;;;7.27;4.73;;;9.70;82.30;;;;;;5113533;28;20358;-72
2021/04/21 09:03:50;;;;;;;6.83;4.50;;;9.70;81.90;;;;;;5113684;28;20294;-70
2021/04/21 09:06:18;;;;;;;12.93;4.80;;;9.70;81.20;;;;;;5113551;28;20297;-70
2021/04/21 09:08:51;;;;;;;8.30;3.93;;;9.70;80.80;;;;;;5114294;28;20044;-71
2021/04/21 09:11:18;;;;;;;6.50;3.80;;;9.70;80.70;;;;;;5113146;28;20809;-71
2021/04/21 09:13:46;;;;;;;5.93;3.20;;;9.70;80.00;;;;;;5114080;28;20294;-71
2021/04/21 09:16:12;;;;;;;8.00;4.43;;;9.80;79.60;;;;;;5113887;28;20304;-71
2021/04/21 09:18:38;;;;;;;7.80;3.20;;;9.90;79.10;;;;;;5113439;28;20294;-72
2021/04/21 09:21:06;;;;;;;6.60;3.00;;;10.10;78.60;;;;;;5113550;28;20044;-72
2021/04/21 09:23:43;;;;;;;4.90;2.63;;;10.20;76.70;;;;;;5114368;28;20305;-71
2021/04/21 09:26:25;;;;;;;10.83;3.40;;;10.20;76.20;;;;;;5113492;27;20301;-72
2021/04/21 09:28:55;;;;;;;5.22;3.17;;;10.20;76.80;;;;;;5113883;28;20300;-71
2021/04/21 09:31:23;;;;;;;7.97;3.50;;;10.20;76.70;;;;;;5113913;28;20408;-72
2021/04/21 09:34:07;;;;;;;7.50;2.93;;;10.20;75.90;;;;;;5113094;28;20322;-72
2021/04/21 09:36:36;;;;;;;7.37;2.33;;;10.30;75.60;;;;;;5114288;28;20297;-72
2021/04/21 09:39:15;;;;;;;6.63;1.97;;;10.50;75.30;;;;;;5113001;28;20376;-74
2021/04/21 09:41:43;;;;;;;6.13;1.63;;;10.70;73.10;;;;;;5113652;28;20712;-73
2021/04/21 09:44:25;;;;;;;6.53;1.60;;;10.90;73.10;;;;;;5113566;28;20293;-73
2021/04/21 09:46:50;;;;;;;;;;;10.90;68.90;;;;;;5112266;28;20789;-73
2021/04/21 09:49:38;;;;;;;6.70;1.53;;;10.90;69.10;;;;;;5113367;28;19920;-73
2021/04/21 09:52:13;;;;;;;10.33;2.00;;;11.00;67.80;;;;;;5113321;27;20051;-74
2021/04/21 09:54:42;;;;;;;7.97;1.90;;;11.10;68.20;;;;;;5112942;28;20305;-73
2021/04/21 09:57:19;;;;;;;8.93;2.00;;;11.30;68.70;;;;;;5113304;28;20300;-74
2021/04/21 09:59:59;;;;;;;6.37;1.87;;;11.50;67.70;;;;;;5113182;28;20294;-74
2021/04/21 10:02:36;;;;;;;7.53;1.70;;;11.60;64.90;;;;;;5113131;28;20295;-74
2021/04/21 10:05:33;;;;;;;10.33;3.27;;;11.70;65.10;;;;;;5113024;28;20136;-73
2021/04/21 10:08:13;;;;;;;8.77;2.23;;;11.70;61.60;;;;;;5112313;28;20388;-73
2021/04/21 10:10:40;;;;;;;8.10;1.93;;;11.70;62.60;;;;;;5113935;28;20043;-73
2021/04/21 10:13:18;;;;;;;7.20;1.80;;;11.80;63.90;;;;;;5113434;28;20052;-73
2021/04/21 10:15:45;;;;;;;7.50;1.87;;;11.90;61.80;;;;;;5112421;28;20039;-73
2021/04/21 10:18:13;;;;;;;5.37;1.50;;;11.80;63.30;;;;;;5112913;28;20079;-74
2021/04/21 10:20:40;;;;;;;5.37;1.43;;;11.80;62.80;;;;;;5112987;28;20437;-73
2021/04/21 10:23:07;;;;;;;7.57;1.77;;;11.70;62.00;;;;;;5112237;28;20047;-74
2021/04/21 10:25:36;;;;;;;5.73;1.43;;;11.60;61.50;;;;;;5113365;28;20376;-74
2021/04/21 10:28:02;;;;;;;6.43;1.90;;;11.60;61.50;;;;;;5112515;28;20047;-73
2021/04/21 10:30:29;;;;;;;7.10;1.57;;;11.50;62.10;;;;;;5111845;28;20328;-73
2021/04/21 10:32:54;;;;;;;10.23;2.20;;;11.50;62.60;;;;;;5112245;28;20053;-74
2021/04/21 10:35:20;;;;;;;7.00;1.50;;;11.30;63.30;;;;;;5112645;28;20380;-73
2021/04/21 10:37:46;;;;;;;9.27;1.73;;;11.20;63.80;;;;;;5111511;28;20144;-73
2021/04/21 10:40:21;;;;;;;8.50;2.50;;;11.10;64.30;;;;;;5112360;28;20124;-73
2021/04/21 10:43:06;;;;;;;6.77;1.97;;;11.20;64.70;;;;;;5111799;28;20190;-73
2021/04/21 10:45:32;;;;;;;15.47;2.77;;;11.20;63.80;;;;;;5112708;28;20659;-74
2021/04/21 10:48:00;;;;;;;11.07;2.03;;;11.10;64.70;;;;;;5111798;28;20044;-70
2021/04/21 10:50:45;;;;;;;6.77;2.17;;;11.20;65.90;;;;;;5111702;28;20381;-70
2021/04/21 10:53:42;;;;;;;9.70;2.30;;;11.30;64.30;;;;;;5112324;28;20306;-74
2021/04/21 10:56:24;;;;;;;8.10;2.00;;;11.30;64.70;;;;;;5111744;28;20114;-73
2021/04/21 10:58:54;;;;;;;12.02;2.33;;;11.30;63.30;;;;;;5110956;28;20750;-74
2021/04/21 11:01:37;;;;;;;9.23;2.30;;;11.20;64.50;;;;;;5112239;28;20492;-75
2021/04/21 11:04:08;;;;;;;12.37;2.73;;;11.10;64.80;;;;;;5111096;28;20309;-72
2021/04/21 11:06:39;;;;;;;13.48;2.88;;;10.90;66.40;;;;;;5112063;28;20285;-75
2021/04/21 11:09:07;;;;;;;16.23;3.08;;;10.70;67.60;;;;;;5111908;28;20052;-73
2021/04/21 11:11:34;;;;;;;11.53;2.63;;;10.60;68.30;;;;;;5111147;28;20043;-74
2021/04/21 11:14:00;;;;;;;13.10;3.37;;;10.50;68.70;;;;;;5111080;28;20474;-74
2021/04/21 11:16:36;;;;;;;12.90;3.00;;;10.50;68.80;;;;;;5111443;28;20849;-74
2021/04/21 11:19:14;;;;;;;15.17;3.20;;;10.40;68.60;;;;;;5108934;28;20425;-74
2021/04/21 11:21:40;;;;;;;15.27;3.40;;;10.40;68.60;;;;;;5109887;28;20317;-73
2021/04/21 11:24:06;;;;;;;15.67;3.40;;;10.40;68.80;;;;;;5109561;28;20300;-73
2021/04/21 11:26:34;;;;;;;11.67;3.43;;;10.60;69.10;;;;;;5109160;28;20051;-73
2021/04/21 11:29:12;;;;;;;15.07;4.07;;;10.80;68.50;;;;;;5109979;28;20646;-74
2021/04/21 11:31:52;;;;;;;16.10;3.20;;;11.00;67.00;;;;;;5110808;28;20794;-73
2021/04/21 11:34:26;;;;;;;11.33;2.40;;;11.10;66.00;;;;;;5111655;28;20790;-73
2021/04/21 11:36:59;;;;;;;11.60;3.40;;;11.30;64.10;;;;;;5111555;28;20350;-73
2021/04/21 11:39:40;;;;;;;12.87;3.27;;;11.40;62.60;;;;;;5110920;28;20293;-73
2021/04/21 11:42:29;;;;;;;10.10;3.38;;;11.30;61.50;;;;;;5111528;28;20298;-73
2021/04/21 11:45:05;;;;;;;16.17;3.20;;;11.20;61.80;;;;;;5111079;28;20112;-74
2021/04/21 11:47:42;;;;;;;12.90;2.60;;;11.10;62.70;;;;;;5110739;28;20321;-73
2021/04/21 11:50:18;;;;;;;12.20;3.33;;;11.30;60.00;;;;;;5111453;28;20307;-74
2021/04/21 11:52:46;;;;;;;9.13;2.50;;;11.40;59.90;;;;;;5111734;28;20631;-74
2021/04/21 11:55:21;;;;;;;9.77;2.73;;;11.30;59.00;;;;;;5110524;28;20297;-74
2021/04/21 11:57:54;;;;;;;13.20;3.00;;;11.30;58.60;;;;;;5111116;28;20805;-74
2021/04/21 12:00:22;;;;;;;12.07;2.63;;;11.40;58.60;;;;;;5110864;28;20354;-73
2021/04/21 12:02:48;;;;;;;11.70;2.93;;;11.40;59.10;;;;;;5111314;28;20782;-74
2021/04/21 12:05:19;;;;;;;9.20;2.50;;;11.50;59.00;;;;;;5111137;28;20347;-73
2021/04/21 12:07:48;;;;;;;11.77;3.33;;;11.60;56.90;;;;;;5110798;28;20056;-74
2021/04/21 12:10:21;;;;;;;14.50;2.70;;;11.60;57.40;;;;;;5111898;28;20048;-74
2021/04/21 12:12:47;;;;;;;9.83;2.80;;;11.60;56.60;;;;;;5115164;28;20818;-74
2021/04/21 12:15:14;;;;;;;9.13;2.33;;;11.70;56.80;;;;;;5114207;28;20067;-74
2021/04/21 12:17:57;;;;;;;12.87;2.57;;;11.80;55.80;;;;;;5115265;28;20039;-73
2021/04/21 12:20:26;;;;;;;13.00;3.10;;;11.80;55.30;;;;;;5115221;28;20126;-73
2021/04/21 12:22:52;;;;;;;15.67;4.40;;;12.00;56.40;;;;;;5114306;28;20048;-73
2021/04/21 12:25:22;;;;;;;9.37;2.33;;;12.20;56.30;;;;;;5114918;28;20576;-74
2021/04/21 12:27:50;;;;;;;11.97;2.20;;;12.20;54.60;;;;;;5114904;28;20043;-73
2021/04/21 12:30:18;;;;;;;10.03;3.13;;;12.00;54.40;;;;;;5114128;28;20481;-75
2021/04/21 12:32:44;;;;;;;12.20;3.70;;;12.00;55.20;;;;;;5114656;28;20257;-75
2021/04/21 12:35:11;;;;;;;11.63;3.43;;;12.00;55.10;;;;;;5114240;28;20129;-75
2021/04/21 12:37:37;;;;;;;10.37;2.97;;;12.00;54.50;;;;;;5115239;28;20461;-74
2021/04/21 12:40:21;;;;;;;18.27;4.10;;;11.80;54.50;;;;;;5114520;28;20310;-75
2021/04/21 12:42:49;;;;;;;13.47;3.63;;;11.60;53.70;;;;;;5114008;28;20047;-74
2021/04/21 12:45:30;;;;;;;12.20;3.73;;;11.40;54.80;;;;;;5114659;28;20051;-75
2021/04/21 12:47:56;;;;;;;15.30;3.70;;;11.20;55.30;;;;;;5114419;28;20293;-73
2021/04/21 12:50:32;;;;;;;11.07;3.70;;;11.20;55.70;;;;;;5113869;28;20380;-74
2021/04/21 12:53:16;;;;;;;18.07;3.97;;;11.40;55.60;;;;;;5114299;28;20289;-74
2021/04/21 12:55:41;;;;;;;9.53;3.20;;;11.60;55.90;;;;;;5114798;28;20376;-75
2021/04/21 12:58:07;;;;;;;10.43;3.07;;;11.50;55.90;;;;;;5113524;28;20384;-75
2021/04/21 13:00:33;;;;;;;13.80;3.70;;;11.50;55.00;;;;;;5114607;28;20495;-75
2021/04/21 13:02:59;;;;;;;13.23;3.30;;;11.40;53.90;;;;;;5113918;28;20039;-74
2021/04/21 13:05:44;;;;;;;14.53;3.83;;;11.40;53.90;;;;;;5113141;28;20043;-73
2021/04/21 13:08:25;;;;;;;13.17;3.50;;;11.40;53.70;;;;;;5114192;28;20414;-72
2021/04/21 13:10:53;;;;;;;11.97;3.53;;;11.50;53.80;;;;;;5113209;28;20304;-71
2021/04/21 13:13:30;;;;;;;11.37;3.10;;;11.50;54.40;;;;;;5113777;28;20301;-74
2021/04/21 13:15:57;;;;;;;10.17;3.43;;;11.60;52.80;;;;;;5107154;28;20800;-72